Time;durP1;ratioP1;P1;durP2;ratioP2;P2;SDS_P1;SDS_P2;PMS_P1;PMS_P2;Temp;Humidity;BMP_temperature;BMP_pressure;BME280_temperature;BME280_humidity;BME280_pressure;Samples;Min_cycle;Max_cycle;Signal;HPM_P1;HPM_P2
2022/05/21 00:02:13;;;;;;;5.95;3.95;;;13.10;1.00;13.90;94621.00;;;;7400749;19;20136;-78
2022/05/21 00:04:43;;;;;;;6.20;4.13;;;13.00;1.00;14.00;94631.00;;;;7417994;19;20136;-81
2022/05/21 00:07:10;;;;;;;4.55;4.15;;;13.00;1.00;13.90;94491.00;;;;7402353;19;20515;-79
2022/05/21 00:09:44;;;;;;;5.20;4.25;;;12.90;1.00;14.10;94653.00;;;;7399376;19;20600;-78
2022/05/21 00:12:14;;;;;;;5.30;3.78;;;12.90;1.00;13.90;94630.00;;;;7397945;19;20137;-78
2022/05/21 00:14:41;;;;;;;4.60;4.20;;;12.90;1.00;13.70;94627.00;;;;7399696;19;20160;-79
2022/05/21 00:17:15;;;;;;;6.07;4.28;;;12.80;1.00;13.70;94632.00;;;;7398806;19;20152;-77
2022/05/21 00:19:42;;;;;;;7.72;4.50;;;12.70;1.00;13.80;94646.00;;;;7398387;19;20156;-79
2022/05/21 00:22:09;;;;;;;6.22;4.45;;;12.70;1.00;13.50;94642.00;;;;7402819;19;20170;-79
2022/05/21 00:24:43;;;;;;;5.53;4.40;;;12.60;1.00;13.50;94645.00;;;;7399663;19;20141;-78
2022/05/21 00:27:11;;;;;;;5.97;4.25;;;12.50;1.00;13.60;94664.00;;;;7401335;19;20140;-78
2022/05/21 00:29:39;;;;;;;7.78;4.35;;;12.50;1.00;13.40;94651.00;;;;7405782;19;20133;-79
2022/05/21 00:32:12;;;;;;;6.43;4.55;;;12.40;1.00;13.40;94648.00;;;;7405106;19;20146;-79
2022/05/21 00:34:39;;;;;;;10.88;5.20;;;12.40;1.00;13.30;94630.00;;;;7395110;19;20583;-78
2022/05/21 00:37:06;;;;;;;5.10;4.60;;;12.30;1.00;13.30;94647.00;;;;7400912;19;20144;-80
2022/05/21 00:39:40;;;;;;;7.65;4.20;;;12.30;1.00;13.30;94646.00;;;;7403585;19;20124;-78
2022/05/21 00:42:08;;;;;;;5.43;4.10;;;12.30;1.00;13.30;94630.00;;;;7398002;19;20144;-78
2022/05/21 00:44:35;;;;;;;6.93;4.60;;;12.30;1.00;13.10;94660.00;;;;7400596;19;20165;-79
2022/05/21 00:47:08;;;;;;;4.93;4.40;;;12.20;1.00;13.10;94657.00;;;;7400219;19;20148;-78
2022/05/21 00:49:36;;;;;;;6.18;4.70;;;12.20;99.90;13.00;94631.00;;;;7398942;19;20579;-80
2022/05/21 00:52:22;;;;;;;7.45;4.68;;;12.10;99.90;13.00;94639.00;;;;7401713;19;20528;-79
2022/05/21 00:55:06;;;;;;;4.60;4.20;;;12.00;99.90;12.90;94657.00;;;;7399822;19;20121;-78
2022/05/21 00:57:40;;;;;;;5.63;4.47;;;11.90;99.90;12.70;94631.00;;;;7399277;19;20208;-78
2022/05/21 01:00:23;;;;;;;5.03;4.50;;;11.90;99.90;12.60;94632.00;;;;7399364;19;20160;-77
2022/05/21 01:02:57;;;;;;;8.90;4.70;;;11.80;99.90;12.50;94632.00;;;;7396414;19;20151;-78
2022/05/21 01:05:37;;;;;;;5.43;4.85;;;11.70;99.90;12.60;94631.00;;;;7398220;19;20152;-75
2022/05/21 01:08:11;;;;;;;5.13;4.60;;;11.60;99.90;12.50;94647.00;;;;7395100;19;20591;-75
2022/05/21 01:10:53;;;;;;;6.28;4.18;;;11.50;1.00;12.40;94646.00;;;;7397560;19;20153;-74
2022/05/21 01:13:25;;;;;;;5.32;4.40;;;11.50;1.00;12.30;94663.00;;;;7396280;19;20156;-77
2022/05/21 01:16:00;;;;;;;7.28;4.57;;;11.40;99.90;12.30;94642.00;;;;7394852;19;20622;-77
2022/05/21 01:18:28;;;;;;;5.50;4.90;;;11.40;99.90;12.30;94636.00;;;;7398341;19;20145;-76
2022/05/21 01:20:59;;;;;;;7.15;4.70;;;11.30;99.90;12.20;94666.00;;;;7398019;19;20611;-77
2022/05/21 01:23:34;;;;;;;5.03;4.53;;;11.30;99.90;12.10;94659.00;;;;7394522;19;20549;-80
2022/05/21 01:26:06;;;;;;;5.63;5.00;;;11.20;99.90;12.10;94646.00;;;;7400380;19;20133;-78
2022/05/21 01:28:36;;;;;;;7.40;5.38;;;11.20;99.90;12.10;94632.00;;;;7396314;19;20153;-79
2022/05/21 01:31:10;;;;;;;5.43;4.85;;;11.10;99.90;12.00;94618.00;;;;7398200;19;20152;-79
2022/05/21 01:33:44;;;;;;;6.78;5.15;;;11.10;99.90;12.00;94655.00;;;;7400012;19;20168;-81
2022/05/21 01:36:18;;;;;;;7.38;5.32;;;11.00;99.90;11.90;94650.00;;;;7403558;19;20148;-79
2022/05/21 01:38:49;;;;;;;8.13;5.93;;;11.00;1.00;12.00;94633.00;;;;7394104;19;20604;-76
2022/05/21 01:41:16;;;;;;;7.00;5.13;;;11.00;1.00;11.90;94630.00;;;;7396433;19;20616;-77
2022/05/21 01:46:35;;;;;;;6.95;5.80;;;10.90;1.00;11.80;94646.00;;;;7406467;19;20124;-79
2022/05/21 01:49:09;;;;;;;11.93;5.82;;;10.80;1.00;11.80;94636.00;;;;7393842;19;20155;-78
2022/05/21 01:51:36;;;;;;;9.82;6.28;;;10.80;1.00;11.70;94647.00;;;;7393867;19;20137;-80
2022/05/21 01:54:06;;;;;;;6.77;6.07;;;10.80;1.00;11.70;94651.00;;;;7392446;19;20595;-79
2022/05/21 01:56:39;;;;;;;9.90;6.50;;;10.70;1.00;11.50;94673.00;;;;7393204;19;20141;-79
2022/05/21 01:59:06;;;;;;;7.70;6.43;;;10.70;1.00;11.60;94653.00;;;;7399036;19;20168;-79
2022/05/21 02:01:33;;;;;;;8.13;6.75;;;10.60;1.00;11.40;94653.00;;;;7411463;19;20133;-79
2022/05/21 02:04:07;;;;;;;9.40;6.30;;;10.50;1.00;11.50;94649.00;;;;7397616;19;20163;-79
2022/05/21 02:06:42;;;;;;;9.73;7.35;;;10.50;1.00;11.50;94666.00;;;;7403307;19;20188;-80
2022/05/21 02:09:22;;;;;;;7.57;6.78;;;10.40;99.90;11.40;94661.00;;;;7403462;19;20192;-79
2022/05/21 02:11:49;;;;;;;8.13;7.23;;;10.40;99.90;11.40;94691.00;;;;7396120;19;20173;-78
2022/05/21 02:14:23;;;;;;;8.73;6.77;;;10.40;1.00;11.40;94689.00;;;;7394665;19;20156;-79
2022/05/21 02:16:50;;;;;;;7.40;6.70;;;10.40;99.90;11.30;94679.00;;;;7397594;19;20139;-78
2022/05/21 02:19:20;;;;;;;10.30;7.70;;;10.30;99.90;11.40;94695.00;;;;7400634;19;20145;-79
2022/05/21 02:21:56;;;;;;;8.53;6.53;;;10.30;99.90;11.20;94675.00;;;;7396860;19;20137;-80
2022/05/21 02:24:23;;;;;;;9.20;6.73;;;10.20;99.90;10.90;94666.00;;;;7395979;19;20144;-79
2022/05/21 02:26:50;;;;;;;8.33;7.53;;;10.20;99.90;11.20;94696.00;;;;7399923;19;20153;-79
2022/05/21 02:29:25;;;;;;;7.27;6.57;;;10.10;1.00;11.10;94676.00;;;;7399637;19;20152;-78
2022/05/21 02:31:53;;;;;;;9.47;6.90;;;10.10;1.00;11.00;94691.00;;;;7396732;19;20156;-79
2022/05/21 02:34:20;;;;;;;10.03;6.77;;;10.00;1.00;10.90;94706.00;;;;7398352;19;20653;-80
2022/05/21 02:39:43;;;;;;;8.30;7.40;;;10.00;1.00;10.90;94706.00;;;;7406740;19;20162;-81
2022/05/21 02:45:04;;;;;;;9.33;7.73;;;9.90;1.00;10.90;94694.00;;;;7410122;19;20124;-79
2022/05/21 02:47:38;;;;;;;8.40;7.60;;;9.90;1.00;10.90;94693.00;;;;7405601;19;20152;-78
2022/05/21 02:50:07;;;;;;;13.40;8.27;;;9.90;1.00;10.90;94678.00;;;;7405797;19;20153;-82
2022/05/21 02:52:34;;;;;;;7.83;7.03;;;9.90;1.00;10.90;94696.00;;;;7408692;19;20141;-79
2022/05/21 02:55:11;;;;;;;10.30;7.27;;;9.90;1.00;10.90;94713.00;;;;7415084;19;20146;-80
2022/05/21 02:57:39;;;;;;;8.40;7.40;;;9.90;1.00;10.70;94714.00;;;;7422001;19;20145;-82
2022/05/21 03:00:22;;;;;;;9.35;6.70;;;9.90;1.00;10.60;94726.00;;;;7420329;19;20197;-80
2022/05/21 03:02:56;;;;;;;11.80;8.03;;;9.80;1.00;10.70;94703.00;;;;7409023;19;20167;-81
2022/05/21 03:05:25;;;;;;;10.10;8.53;;;9.80;1.00;10.50;94715.00;;;;7404886;19;20121;-79
2022/05/21 03:07:53;;;;;;;10.20;8.00;;;9.70;1.00;10.60;94721.00;;;;7400645;19;20160;-80
2022/05/21 03:10:36;;;;;;;10.00;8.30;;;9.70;1.00;10.40;94721.00;;;;7417614;19;20128;-81
2022/05/21 03:13:03;;;;;;;10.97;8.90;;;9.60;1.00;10.60;94694.00;;;;7412107;19;20136;-82
2022/05/21 03:15:39;;;;;;;9.33;7.80;;;9.60;1.00;10.40;94710.00;;;;7431198;19;20140;-81
2022/05/21 03:18:10;;;;;;;9.93;8.13;;;9.50;1.00;10.50;94702.00;;;;7423558;19;20129;-80
2022/05/21 03:20:44;;;;;;;11.70;8.03;;;9.50;1.00;10.40;94698.00;;;;7415189;19;20124;-81
2022/05/21 03:23:12;;;;;;;10.97;8.37;;;9.50;1.00;10.40;94676.00;;;;7410406;19;20137;-79
2022/05/21 03:25:41;;;;;;;8.27;7.40;;;9.40;1.00;10.30;94684.00;;;;7421023;19;20160;-82
2022/05/21 03:28:21;;;;;;;12.40;7.43;;;9.40;1.00;10.20;94709.00;;;;7399797;19;20194;-81
2022/05/21 03:30:51;;;;;;;9.97;8.70;;;9.30;1.00;10.30;94585.00;;;;7403446;19;20446;-81
2022/05/21 03:33:28;;;;;;;8.80;7.37;;;9.30;1.00;10.40;94685.00;;;;7411192;19;20148;-80
2022/05/21 03:35:55;;;;;;;11.23;8.20;;;9.30;1.00;10.30;94709.00;;;;7405237;19;20142;-79
2022/05/21 03:38:23;;;;;;;8.37;7.20;;;9.30;1.00;10.40;94694.00;;;;7402684;19;20533;-81
2022/05/21 03:40:56;;;;;;;7.67;6.73;;;9.30;1.00;10.30;94703.00;;;;7408188;19;20157;-81
2022/05/21 03:43:30;;;;;;;7.27;6.47;;;9.30;1.00;9.30;94498.00;;;;7403532;19;20180;-81
2022/05/21 03:46:04;;;;;;;8.87;6.77;;;9.20;1.00;9.50;94597.00;;;;7426323;19;20149;-82
2022/05/21 03:48:45;;;;;;;7.63;6.93;;;9.20;1.00;10.30;94621.00;;;;7390039;19;20208;-81
2022/05/21 03:51:19;;;;;;;9.93;7.27;;;9.20;1.00;10.30;94721.00;;;;7414161;19;20631;-82
2022/05/21 03:53:46;;;;;;;8.10;6.50;;;9.20;1.00;10.10;94739.00;;;;7422562;19;20529;-82
2022/05/21 03:56:14;;;;;;;9.10;6.50;;;9.10;1.00;10.20;94728.00;;;;7412166;19;20141;-81
2022/05/21 03:58:48;;;;;;;7.90;6.57;;;9.10;1.00;10.20;94722.00;;;;7409331;19;20144;-81
2022/05/21 04:01:15;;;;;;;8.87;6.47;;;9.10;1.00;10.10;94707.00;;;;7404714;19;20149;-81
2022/05/21 04:03:43;;;;;;;7.03;6.03;;;9.10;1.00;10.00;94712.00;;;;7402377;19;20136;-79
2022/05/21 04:06:18;;;;;;;9.37;6.60;;;9.10;99.90;10.00;94733.00;;;;7402681;19;20614;-80
2022/05/21 04:08:45;;;;;;;9.03;5.80;;;9.10;99.90;10.20;94715.00;;;;7404138;19;20570;-80
2022/05/21 04:11:12;;;;;;;7.57;5.90;;;9.10;99.90;10.10;94717.00;;;;7400119;19;20187;-80
2022/05/21 04:13:45;;;;;;;10.97;7.60;;;9.10;99.90;10.20;94705.00;;;;7403025;19;20140;-82
2022/05/21 04:16:12;;;;;;;8.10;7.30;;;9.10;99.90;10.30;94709.00;;;;7405747;19;20156;-82
2022/05/21 04:18:39;;;;;;;7.97;7.17;;;9.10;99.90;10.20;94709.00;;;;7403706;19;20158;-82
2022/05/21 04:21:13;;;;;;;10.60;8.50;;;9.20;99.90;10.30;94708.00;;;;7401282;19;20141;-81
2022/05/21 04:23:40;;;;;;;9.57;8.57;;;9.20;99.90;10.10;94714.00;;;;7407231;19;20148;-80
2022/05/21 04:26:07;;;;;;;9.37;8.20;;;9.20;99.90;10.20;94734.00;;;;7413429;19;20140;-81
2022/05/21 04:28:41;;;;;;;11.03;8.47;;;9.30;99.90;10.40;94697.00;;;;7403623;19;20120;-81
2022/05/21 04:31:08;;;;;;;10.47;8.23;;;9.30;99.90;10.40;94736.00;;;;7405167;19;20615;-81
2022/05/21 04:33:36;;;;;;;8.60;7.63;;;9.30;99.90;10.50;94742.00;;;;7403204;19;20165;-82
2022/05/21 04:36:18;;;;;;;9.37;8.33;;;9.30;99.90;10.40;94718.00;;;;7409594;19;20155;-81
2022/05/21 04:38:51;;;;;;;10.07;7.47;;;9.30;99.90;10.40;94725.00;;;;7410950;19;20148;-82
2022/05/21 04:41:26;;;;;;;8.90;7.40;;;9.40;99.90;10.60;94721.00;;;;7410289;19;20149;-81
2022/05/21 04:43:54;;;;;;;9.60;6.83;;;9.40;99.90;10.60;94720.00;;;;7408231;19;20208;-81
2022/05/21 04:46:24;;;;;;;7.70;6.90;;;9.50;99.90;10.80;94742.00;;;;7402862;19;20140;-79
2022/05/21 04:49:10;;;;;;;8.47;6.20;;;9.50;99.90;10.80;94708.00;;;;7399881;19;20154;-81
2022/05/21 04:51:44;;;;;;;7.60;6.53;;;9.60;99.90;10.90;94730.00;;;;7420680;19;20152;-83
2022/05/21 04:54:18;;;;;;;8.27;6.57;;;9.60;92.10;11.00;94730.00;;;;7423360;19;20128;-82
2022/05/21 04:56:58;;;;;;;11.03;6.93;;;9.80;88.00;10.20;94600.00;;;;7388424;18;20192;-81
2022/05/21 04:59:39;;;;;;;6.10;5.13;;;9.80;99.90;11.40;94520.00;;;;7408518;19;20153;-81
2022/05/21 05:02:06;;;;;;;8.20;5.63;;;9.90;1.00;11.00;94667.00;;;;7409860;19;20148;-80
2022/05/21 05:04:48;;;;;;;11.00;4.93;;;10.10;1.00;11.50;94588.00;;;;7412074;19;20173;-81
2022/05/21 05:07:22;;;;;;;6.28;4.53;;;10.20;1.00;11.60;94648.00;;;;7418143;19;20117;-84
2022/05/21 05:09:57;;;;;;;9.00;4.73;;;10.30;99.90;11.70;94727.00;;;;7408634;19;20553;-79
2022/05/21 05:12:27;;;;;;;5.40;4.30;;;10.40;99.90;11.90;94680.00;;;;7409592;19;20164;-79
2022/05/21 05:14:58;;;;;;;5.57;4.53;;;10.50;87.00;11.70;94484.00;;;;7405160;19;20129;-80
2022/05/21 05:17:39;;;;;;;5.30;4.70;;;10.50;99.90;11.40;94474.00;;;;7409720;19;20583;-81
2022/05/21 05:20:07;;;;;;;6.07;4.43;;;10.60;1.00;12.00;94626.00;;;;7408652;19;20156;-79
2022/05/21 05:22:41;;;;;;;4.45;3.92;;;10.70;1.00;12.10;94546.00;;;;7402872;19;20192;-78
2022/05/21 05:25:10;;;;;;;4.70;3.70;;;10.80;1.00;12.40;94674.00;;;;7407149;19;20128;-78
2022/05/21 05:27:37;;;;;;;4.45;3.70;;;11.00;1.00;12.50;94712.00;;;;7403755;19;20632;-77
2022/05/21 05:30:12;;;;;;;7.30;4.22;;;11.00;99.90;12.60;94712.00;;;;7405629;19;20128;-79
2022/05/21 05:32:40;;;;;;;5.10;3.33;;;11.10;99.90;12.50;94692.00;;;;7416529;19;20508;-79
2022/05/21 05:35:09;;;;;;;7.60;3.30;;;11.20;1.00;12.10;94749.00;;;;7409748;19;20164;-79
2022/05/21 05:37:46;;;;;;;4.60;3.50;;;11.10;99.90;12.20;94726.00;;;;7409526;19;20488;-80
2022/05/21 05:40:18;;;;;;;3.90;3.13;;;11.10;1.00;12.40;94747.00;;;;7411933;19;20157;-80
2022/05/21 05:42:51;;;;;;;5.05;3.55;;;11.00;99.90;12.30;94725.00;;;;7406552;19;20156;-79
2022/05/21 05:45:19;;;;;;;4.72;3.55;;;10.90;99.90;12.60;94709.00;;;;7406359;19;20133;-79
2022/05/21 05:47:47;;;;;;;5.30;3.80;;;11.00;99.90;13.00;94709.00;;;;7409082;19;20169;-80
2022/05/21 05:50:20;;;;;;;5.05;3.05;;;11.30;99.90;13.10;94756.00;;;;7397613;19;20156;-78
2022/05/21 05:52:48;;;;;;;3.33;2.90;;;11.50;99.90;13.20;94705.00;;;;7396457;19;20496;-78
2022/05/21 05:55:16;;;;;;;4.53;3.00;;;11.70;50.30;13.30;94730.00;;;;7398690;19;20149;-78
2022/05/21 05:57:59;;;;;;;3.45;2.58;;;11.90;1.00;13.60;94724.00;;;;7395592;19;20160;-79
2022/05/21 06:00:33;;;;;;;6.38;2.70;;;12.10;52.20;14.00;94733.00;;;;7394857;19;20172;-80
2022/05/21 06:03:06;;;;;;;2.75;2.33;;;12.30;1.00;14.00;94734.00;;;;7395889;19;20164;-79
2022/05/21 06:05:33;;;;;;;4.53;2.85;;;12.40;1.00;14.10;94731.00;;;;7396890;19;20157;-79
2022/05/21 06:08:05;;;;;;;5.03;2.72;;;12.50;99.90;14.20;94727.00;;;;7400300;19;20628;-79
2022/05/21 06:10:43;;;;;;;6.38;3.25;;;12.60;99.90;14.00;94733.00;;;;7400227;19;20149;-81
2022/05/21 06:13:11;;;;;;;4.28;3.13;;;12.70;1.00;13.90;94767.00;;;;7409048;19;20141;-82
2022/05/21 06:15:44;;;;;;;2.80;2.50;;;12.70;49.70;14.20;94710.00;;;;7401734;19;20770;-79
2022/05/21 06:18:20;;;;;;;6.38;2.60;;;12.80;1.00;14.00;94758.00;;;;7402701;19;20152;-80
2022/05/21 06:20:49;;;;;;;1.95;1.83;;;12.90;1.00;14.60;94763.00;;;;7407002;19;20144;-80
2022/05/21 06:23:16;;;;;;;3.70;1.88;;;12.90;99.90;14.80;94736.00;;;;7407472;19;20140;-81
2022/05/21 06:25:50;;;;;;;2.55;1.80;;;13.10;1.00;15.10;94732.00;;;;7405379;19;20212;-79
2022/05/21 06:28:17;;;;;;;2.90;1.67;;;13.20;99.90;15.30;94744.00;;;;7398099;19;20204;-81
2022/05/21 06:30:46;;;;;;;1.80;1.30;;;13.30;1.00;15.70;94733.00;;;;7391859;19;20144;-78
2022/05/21 06:33:29;;;;;;;2.95;1.15;;;13.70;1.00;16.10;94749.00;;;;7392871;19;20643;-80
2022/05/21 06:36:02;;;;;;;2.05;1.40;;;14.00;1.00;15.50;94760.00;;;;7393834;19;20156;-81
2022/05/21 06:38:38;;;;;;;1.92;1.13;;;14.00;1.00;15.20;94768.00;;;;7392037;19;20140;-83
2022/05/21 06:41:06;;;;;;;4.45;1.40;;;14.00;1.00;15.40;94764.00;;;;7393221;19;20143;-79
2022/05/21 06:43:34;;;;;;;5.53;1.27;;;13.90;1.00;15.10;94747.00;;;;7393162;19;20160;-79
2022/05/21 06:46:08;;;;;;;1.75;1.35;;;13.80;1.00;15.00;94766.00;;;;7400323;19;20124;-80
2022/05/21 06:48:35;;;;;;;2.78;1.20;;;13.70;1.00;14.90;94743.00;;;;7395899;19;20149;-81
2022/05/21 06:51:05;;;;;;;2.58;1.30;;;13.60;1.00;14.90;94774.00;;;;7393701;19;20603;-81
2022/05/21 06:53:40;;;;;;;1.17;0.90;;;13.40;2.70;15.00;94754.00;;;;7398709;19;20137;-79
2022/05/21 06:56:10;;;;;;;2.75;1.20;;;13.40;20.00;15.80;94755.00;;;;7389791;19;20161;-80
2022/05/21 06:58:46;;;;;;;3.58;1.30;;;13.60;53.90;15.70;94750.00;;;;7389986;19;20179;-79
2022/05/21 07:01:20;;;;;;;1.92;1.05;;;13.70;1.00;15.90;94756.00;;;;7396564;19;20156;-79
2022/05/21 07:03:48;;;;;;;3.20;1.30;;;13.70;22.10;16.10;94744.00;;;;7393553;19;20151;-78
2022/05/21 07:09:07;;;;;;;2.63;0.90;;;13.90;1.00;16.20;94735.00;;;;7390343;19;20160;-80
2022/05/21 07:11:35;;;;;;;1.98;0.93;;;14.20;1.00;16.30;94758.00;;;;7393965;19;20137;-79
2022/05/21 07:14:03;;;;;;;2.22;0.93;;;14.30;1.00;15.80;94762.00;;;;7395951;19;20224;-81
2022/05/21 07:16:37;;;;;;;3.33;1.30;;;14.20;1.00;15.40;94769.00;;;;7395170;19;20167;-80
2022/05/21 07:19:04;;;;;;;1.00;0.73;;;14.20;1.00;15.30;94734.00;;;;7418152;19;20145;-80
2022/05/21 07:21:32;;;;;;;0.85;0.77;;;14.10;1.00;16.00;94751.00;;;;7396423;19;20313;-80
2022/05/21 07:24:06;;;;;;;2.25;0.80;;;14.20;1.00;16.20;94721.00;;;;7396194;19;20133;-78
2022/05/21 07:26:33;;;;;;;4.40;1.15;;;14.20;1.00;15.70;94727.00;;;;7392267;19;20496;-80
2022/05/21 07:29:00;;;;;;;1.08;0.70;;;14.30;1.00;16.20;94722.00;;;;7393671;19;20219;-80
2022/05/21 07:31:35;;;;;;;2.15;0.85;;;14.50;1.00;16.30;94737.00;;;;7400319;19;20152;-79
2022/05/21 07:34:03;;;;;;;1.38;0.90;;;14.60;1.00;16.40;94740.00;;;;7400575;19;20176;-79
2022/05/21 07:36:30;;;;;;;1.38;0.80;;;14.80;1.00;16.40;94723.00;;;;7403022;19;20144;-76
2022/05/21 07:39:03;;;;;;;1.45;0.70;;;14.80;1.00;16.30;94743.00;;;;7403178;19;20485;-80
2022/05/21 07:41:30;;;;;;;1.73;0.80;;;15.00;1.00;16.70;94744.00;;;;7405945;19;20532;-80
2022/05/21 07:43:58;;;;;;;2.65;0.80;;;15.10;1.00;16.50;94767.00;;;;7396695;19;20152;-81
2022/05/21 07:46:32;;;;;;;2.13;0.73;;;15.20;1.00;16.80;94750.00;;;;7398746;19;20162;-82
2022/05/21 07:49:00;;;;;;;0.93;0.70;;;15.30;1.00;16.80;94735.00;;;;7397483;19;20514;-78
2022/05/21 07:51:28;;;;;;;3.25;0.80;;;15.20;1.00;17.00;94740.00;;;;7398204;19;20647;-79
2022/05/21 07:54:01;;;;;;;1.83;0.70;;;15.40;1.00;16.90;94706.00;;;;7398664;19;20144;-80
2022/05/21 07:56:30;;;;;;;1.30;0.70;;;15.60;1.00;17.60;94743.00;;;;7396779;19;20655;-82
2022/05/21 07:58:58;;;;;;;1.17;0.68;;;15.80;1.00;17.30;94730.00;;;;7398073;19;20197;-80
2022/05/21 08:01:31;;;;;;;0.60;0.60;;;15.90;1.00;17.70;94738.00;;;;7397091;19;20145;-78
2022/05/21 08:03:58;;;;;;;1.10;0.70;;;15.80;1.00;18.10;94729.00;;;;7393389;19;20133;-80
2022/05/21 08:06:26;;;;;;;3.70;0.80;;;16.00;1.00;18.20;94744.00;;;;7396899;19;20128;-78
2022/05/21 08:08:59;;;;;;;1.63;0.70;;;16.00;1.00;17.10;94735.00;;;;7399309;19;20129;-80
2022/05/21 08:11:27;;;;;;;1.30;0.52;;;15.80;1.00;17.60;94751.00;;;;7400796;19;20488;-80
2022/05/21 08:13:55;;;;;;;1.02;0.60;;;15.70;1.00;17.90;94749.00;;;;7395808;19;20180;-79
2022/05/21 08:16:29;;;;;;;2.28;0.68;;;15.90;1.00;17.70;94727.00;;;;7397586;19;20176;-78
2022/05/21 08:18:57;;;;;;;1.48;1.00;;;15.90;1.00;17.50;94752.00;;;;7397221;19;20167;-78
2022/05/21 08:21:24;;;;;;;3.22;0.90;;;16.00;1.00;17.40;94725.00;;;;7399275;19;20648;-81
2022/05/21 08:26:56;;;;;;;1.25;0.60;;;16.10;1.00;18.40;94725.00;;;;7398739;19;20200;-82
2022/05/21 08:29:34;;;;;;;1.33;0.70;;;16.30;1.00;18.80;94755.00;;;;7400274;19;20125;-77
2022/05/21 08:32:05;;;;;;;1.55;0.80;;;16.60;1.00;18.40;94757.00;;;;7398283;19;20613;-79
2022/05/21 08:34:39;;;;;;;1.35;0.60;;;16.60;1.00;18.50;94739.00;;;;7392871;19;20176;-83
2022/05/21 08:37:06;;;;;;;2.15;0.85;;;16.80;1.00;18.70;94750.00;;;;7393681;19;20156;-79
2022/05/21 08:39:35;;;;;;;0.88;0.77;;;16.90;1.00;18.90;94736.00;;;;7396440;19;20151;-82
2022/05/21 08:42:17;;;;;;;1.30;0.90;;;17.00;1.00;18.60;94753.00;;;;7394622;19;20136;-81
2022/05/21 08:44:52;;;;;;;1.73;0.70;;;17.10;1.00;19.00;94731.00;;;;7394249;19;20136;-84
2022/05/21 08:47:36;;;;;;;1.02;0.70;;;17.40;1.40;19.30;94742.00;;;;7395734;19;20753;-82
2022/05/21 08:50:09;;;;;;;1.85;0.70;;;17.80;99.90;19.30;94757.00;;;;7393604;19;20596;-80
2022/05/21 08:52:58;;;;;;;0.88;0.70;;;17.50;1.00;19.40;94766.00;;;;7393852;19;20186;-81
2022/05/21 08:55:37;;;;;;;1.63;0.75;;;17.50;1.00;19.30;94748.00;;;;7393043;19;20141;-80
2022/05/21 08:58:50;;;;;;;0.73;0.70;;;17.50;99.90;19.30;94745.00;;;;7391500;19;20172;-79
2022/05/21 09:01:25;;;;;;;1.88;0.95;;;17.60;1.00;19.70;94750.00;;;;7393480;19;20160;-80
2022/05/21 09:03:59;;;;;;;2.85;0.70;;;17.70;1.00;19.20;94745.00;;;;7393739;19;20157;-81
2022/05/21 09:06:41;;;;;;;2.47;0.85;;;17.70;99.90;19.10;94750.00;;;;7392927;19;20156;-83
2022/05/21 09:09:34;;;;;;;1.15;0.70;;;17.70;99.90;19.20;94740.00;;;;7393110;19;20595;-80
2022/05/21 09:12:28;;;;;;;3.33;0.93;;;17.50;99.90;18.40;94737.00;;;;7396665;19;20133;-83
2022/05/21 09:15:04;;;;;;;3.33;0.85;;;17.30;99.90;18.20;94744.00;;;;7394431;19;20164;-81
2022/05/21 09:17:42;;;;;;;1.70;0.70;;;17.00;99.90;18.70;94741.00;;;;7396061;19;20153;-83
2022/05/21 09:20:20;;;;;;;1.40;0.80;;;17.10;99.90;18.90;94716.00;;;;7396119;19;20156;-79
2022/05/21 09:22:56;;;;;;;2.25;0.90;;;17.30;1.00;19.00;94739.00;;;;7395424;19;20125;-82
2022/05/21 09:25:33;;;;;;;0.60;0.60;;;17.40;99.90;19.10;94732.00;;;;7395369;19;20488;-80
2022/05/21 09:28:44;;;;;;;3.05;1.05;;;17.10;99.90;19.40;94547.00;;;;7394358;19;20600;-78
2022/05/21 09:32:40;;;;;;;1.40;0.80;;;17.30;99.90;19.00;94503.00;;;;7390649;19;20607;-79
2022/05/21 09:35:30;;;;;;;1.25;0.90;;;17.40;99.90;20.00;94765.00;;;;7387937;19;20148;-78
2022/05/21 09:38:53;;;;;;;1.23;0.90;;;17.70;99.90;19.80;94571.00;;;;7393290;19;20148;-78
2022/05/21 09:41:32;;;;;;;2.78;1.17;;;17.80;99.90;19.80;94564.00;;;;7395132;19;20141;-77
2022/05/21 09:47:33;;;;;;;0.82;0.77;;;17.90;99.90;20.00;94725.00;;;;7396353;19;20136;-77
2022/05/21 09:50:19;;;;;;;1.95;0.93;;;17.70;99.90;19.90;94753.00;;;;7396157;19;20592;-77
2022/05/21 09:52:53;;;;;;;1.38;0.80;;;17.80;99.90;20.00;94607.00;;;;7394353;19;20858;-78
2022/05/21 09:55:31;;;;;;;1.13;0.90;;;17.80;99.90;20.20;94452.00;;;;7392828;19;20136;-78
2022/05/21 09:58:20;;;;;;;3.97;0.90;;;18.00;99.90;19.50;94550.00;;;;7393558;19;20184;-77
2022/05/21 10:01:09;;;;;;;2.78;1.42;;;17.90;99.90;19.50;94720.00;;;;7390430;19;20228;-77
2022/05/21 10:03:50;;;;;;;2.25;1.13;;;;;19.40;94731.00;;;;7388874;19;20155;-81
2022/05/21 10:06:26;;;;;;;5.18;0.90;;;;;20.00;94726.00;;;;7389446;19;20655;-77
2022/05/21 10:12:26;;;;;;;1.02;0.80;;;;;20.90;94717.00;;;;7394160;19;20151;-78
2022/05/21 10:15:17;;;;;;;2.03;1.08;;;;;20.80;94714.00;;;;7391402;19;20140;-77
2022/05/21 10:18:15;;;;;;;1.45;0.80;;;;;21.00;94700.00;;;;7396281;19;20167;-79
2022/05/21 10:20:46;;;;;;;4.13;1.02;;;;;21.60;94702.00;;;;7392254;19;20140;-78
2022/05/21 10:23:37;;;;;;;2.95;0.98;;;;;20.80;94710.00;;;;7391097;19;20639;-77
2022/05/21 10:26:43;;;;;;;1.85;0.88;;;;;21.60;94695.00;;;;7390918;19;20140;-78
2022/05/21 10:29:54;;;;;;;1.00;0.90;;;;;22.20;94697.00;;;;7389215;19;20133;-78
2022/05/21 10:32:36;;;;;;;2.13;0.95;;;;;21.60;94705.00;;;;7393588;19;20156;-77
2022/05/21 10:35:44;;;;;;;0.98;0.90;;;;;21.80;94710.00;;;;7392149;19;20240;-74
2022/05/21 10:38:21;;;;;;;3.10;0.90;;;;;20.80;94703.00;;;;7389959;19;20156;-74
2022/05/21 10:41:21;;;;;;;1.08;0.90;;;;;21.40;94709.00;;;;7392200;19;20128;-79
2022/05/21 10:44:21;;;;;;;2.08;0.90;;;;;21.80;94695.00;;;;7389771;19;20160;-77
2022/05/21 10:47:02;;;;;;;0.95;0.60;;;;;21.80;94689.00;;;;7388406;19;20159;-78
2022/05/21 10:49:49;;;;;;;1.67;1.10;;;;;21.80;94690.00;;;;7391612;19;20163;-78
2022/05/21 10:53:00;;;;;;;4.40;0.90;;;;;21.70;94678.00;;;;7395062;19;20151;-80
2022/05/21 10:56:31;;;;;;;1.85;0.73;;;;;21.90;94670.00;;;;7392746;19;20161;-79
2022/05/21 10:59:43;;;;;;;1.10;0.80;;;;;22.20;94681.00;;;;7386262;19;20172;-77
2022/05/21 11:02:36;;;;;;;1.48;0.90;;;;;22.80;94677.00;;;;7390974;19;20156;-77
2022/05/21 11:05:57;;;;;;;2.22;1.13;;;;;22.50;94774.00;;;;7399808;19;20155;-76
2022/05/21 11:08:42;;;;;;;0.80;0.68;;;;;21.80;94680.00;;;;7399561;19;20141;-80
2022/05/21 11:11:46;;;;;;;1.40;0.80;;;;;22.90;94688.00;;;;7400208;19;20159;-78
2022/05/21 11:14:59;;;;;;;1.30;1.00;;;;;22.90;94690.00;;;;7400834;19;20149;-78
2022/05/21 11:18:06;;;;;;;1.27;0.90;;;;;23.20;94693.00;;;;7396076;19;20152;-77
2022/05/21 11:20:39;;;;;;;1.67;1.00;;;;;23.00;94683.00;;;;7395791;19;20171;-79
2022/05/21 11:23:34;;;;;;;1.27;0.90;;;;;23.60;94689.00;;;;7398482;19;20169;-78
2022/05/21 11:26:49;;;;;;;1.98;1.10;;;;;21.80;94683.00;;;;7395987;19;20178;-78
2022/05/21 11:30:00;;;;;;;2.05;0.90;;;;;22.40;94701.00;;;;7398669;19;20232;-79
2022/05/21 11:39:19;;;;;;;1.55;0.95;;;;;22.60;94702.00;;;;7394646;19;20553;-79
2022/05/21 11:43:15;;;;;;;1.55;0.95;;;;;22.30;94691.00;;;;7396614;19;20200;-80
2022/05/21 11:49:47;;;;;;;1.75;1.00;;;;;22.60;94678.00;;;;7398958;19;20251;-81
2022/05/21 11:53:08;;;;;;;4.57;0.98;;;;;22.30;94684.00;;;;7398980;19;20139;-81
2022/05/21 11:56:27;;;;;;;1.30;1.05;;;;;23.00;94673.00;;;;7397528;19;20493;-81
2022/05/21 12:02:54;;;;;;;1.75;0.90;;;;;22.70;94674.00;;;;7395278;19;20231;-82
2022/05/21 12:05:51;;;;;;;;;;;;;;;;;;;;;
2022/05/21 12:08:29;;;;;;;4.05;1.08;;;;;22.90;94684.00;;;;7395969;19;20153;-80
2022/05/21 12:11:30;;;;;;;1.65;1.00;;;;;21.50;94707.00;;;;7395072;19;20137;-81
2022/05/21 12:15:32;;;;;;;3.65;1.02;;;;;21.40;94675.00;;;;7394822;19;20630;-81
2022/05/21 12:18:09;;;;;;;3.95;0.98;;;;;21.70;94707.00;;;;7396036;19;20173;-80
2022/05/21 12:20:56;;;;;;;2.65;1.10;;;;;22.30;94685.00;;;;7397185;19;20878;-81
2022/05/21 12:23:53;;;;;;;4.15;1.00;;;;;23.10;94694.00;;;;7397284;19;20148;-81
2022/05/21 12:27:11;;;;;;;1.80;0.90;;;;;22.90;94681.00;;;;7395765;19;20511;-78
2022/05/21 12:30:15;;;;;;;5.10;1.20;;;;;22.00;94681.00;;;;7397948;19;20570;-80
2022/05/21 12:33:07;;;;;;;3.78;1.20;;;;;22.10;94689.00;;;;7396926;19;20137;-78
2022/05/21 12:36:20;;;;;;;3.40;1.13;;;;;21.40;94670.00;;;;7395520;19;20473;-78